createdAt,value
2019-02-21T00:00:05.102Z,48.20
2019-02-21T00:02:35.537Z,48.30
2019-02-21T00:05:04.082Z,48.10
2019-02-21T00:07:31.457Z,48.30
2019-02-21T00:09:58.995Z,48.30
2019-02-21T00:12:26.416Z,48.40
2019-02-21T00:14:53.796Z,48.40
2019-02-21T00:19:57.558Z,48.40
2019-02-21T00:22:24.970Z,48.40
2019-02-21T00:27:08.865Z,48.40
2019-02-21T00:29:36.195Z,48.90
2019-02-21T00:32:03.529Z,48.50
2019-02-21T00:34:31.098Z,50.50
2019-02-21T00:36:58.626Z,49.20
2019-02-21T00:39:26.110Z,49.30
2019-02-21T00:41:53.461Z,49.40
2019-02-21T00:44:20.821Z,48.80
2019-02-21T00:46:48.445Z,49.40
2019-02-21T00:49:15.835Z,48.80
2019-02-21T00:51:43.315Z,49.50
2019-02-21T00:54:10.819Z,49.50
2019-02-21T00:56:38.583Z,49.40
2019-02-21T00:59:06.025Z,49.50
2019-02-21T01:01:33.395Z,50.30
2019-02-21T01:04:01.062Z,49.40
2019-02-21T01:06:28.455Z,50.00
2019-02-21T01:08:55.905Z,49.40
2019-02-21T01:11:23.193Z,49.50
2019-02-21T01:13:50.611Z,49.30
2019-02-21T01:16:17.920Z,49.40
2019-02-21T01:18:45.300Z,48.60
2019-02-21T01:21:12.676Z,49.20
2019-02-21T01:23:40.201Z,49.30
2019-02-21T01:26:07.765Z,49.20
2019-02-21T01:28:35.238Z,49.10
2019-02-21T01:31:03.155Z,49.20
2019-02-21T01:33:30.663Z,49.20
2019-02-21T01:35:58.035Z,49.20
2019-02-21T01:38:25.440Z,49.20
2019-02-21T01:40:52.702Z,49.20
2019-02-21T01:43:20.048Z,49.30
2019-02-21T01:45:47.752Z,49.20
2019-02-21T01:48:15.535Z,49.40
2019-02-21T01:50:42.924Z,50.20
2019-02-21T01:53:10.199Z,50.70
2019-02-21T01:55:37.770Z,48.70
2019-02-21T01:58:05.331Z,49.20
2019-02-21T02:00:32.771Z,49.50
2019-02-21T02:02:59.970Z,49.20
2019-02-21T02:05:27.433Z,49.30
2019-02-21T02:07:54.678Z,49.20
2019-02-21T02:10:22.062Z,47.70
2019-02-21T02:12:49.420Z,49.90
2019-02-21T02:15:16.796Z,48.70
2019-02-21T02:17:44.236Z,49.40
2019-02-21T02:20:11.608Z,48.90
2019-02-21T02:22:38.961Z,49.50
2019-02-21T02:25:06.448Z,49.40
2019-02-21T02:27:33.964Z,49.40
2019-02-21T02:30:01.503Z,48.80
2019-02-21T02:32:28.974Z,49.40
2019-02-21T02:34:56.414Z,49.40
2019-02-21T02:37:23.910Z,49.80
2019-02-21T02:39:51.387Z,49.30
2019-02-21T02:42:18.876Z,49.30
2019-02-21T02:44:46.362Z,49.40
2019-02-21T02:47:13.698Z,49.30
2019-02-21T02:49:41.074Z,49.30
2019-02-21T02:52:08.496Z,49.30
2019-02-21T02:54:35.965Z,49.20
2019-02-21T02:57:03.480Z,49.20
2019-02-21T02:59:40.290Z,49.30
2019-02-21T03:02:00.228Z,49.20
2019-02-21T03:04:27.627Z,49.90
2019-02-21T03:06:54.971Z,49.10
2019-02-21T03:09:22.443Z,50.00
2019-02-21T03:11:51.885Z,49.10
2019-02-21T03:14:19.023Z,49.20
2019-02-21T03:16:46.439Z,49.30
2019-02-21T03:19:13.887Z,49.30
2019-02-21T03:21:41.429Z,49.20
2019-02-21T03:24:08.878Z,49.40
2019-02-21T03:26:36.507Z,49.40
2019-02-21T03:29:03.954Z,49.40
2019-02-21T03:31:31.368Z,48.80
2019-02-21T03:33:58.721Z,48.80
2019-02-21T03:36:26.250Z,49.40
2019-02-21T03:38:53.690Z,49.60
2019-02-21T03:41:21.091Z,49.40
2019-02-21T03:43:48.448Z,48.70
2019-02-21T03:46:16.152Z,49.30
2019-02-21T03:48:43.509Z,49.30
2019-02-21T03:51:10.934Z,49.20
2019-02-21T03:53:38.557Z,49.30
2019-02-21T03:56:06.052Z,48.80
2019-02-21T03:58:33.467Z,49.40
2019-02-21T04:01:00.714Z,49.60
2019-02-21T04:03:28.193Z,49.60
2019-02-21T04:05:55.599Z,49.60
2019-02-21T04:08:22.939Z,49.70
2019-02-21T04:10:50.367Z,49.80
2019-02-21T04:13:17.805Z,50.00
2019-02-21T04:15:45.302Z,49.90
2019-02-21T04:18:12.715Z,49.90
2019-02-21T04:20:40.009Z,49.20
2019-02-21T04:23:07.496Z,49.20
2019-02-21T04:25:34.879Z,49.80
2019-02-21T04:28:02.256Z,49.10
2019-02-21T04:30:29.685Z,50.00
2019-02-21T04:32:56.965Z,49.80
2019-02-21T04:35:24.298Z,49.70
2019-02-21T04:37:51.733Z,49.90
2019-02-21T04:40:19.141Z,49.30
2019-02-21T04:42:46.571Z,49.30
2019-02-21T04:45:14.079Z,50.00
2019-02-21T04:47:41.467Z,49.50
2019-02-21T04:50:08.901Z,49.60
2019-02-21T04:52:36.345Z,49.60
2019-02-21T04:55:03.856Z,49.60
2019-02-21T04:57:31.182Z,49.70
2019-02-21T04:59:58.568Z,49.90
2019-02-21T05:02:28.871Z,50.80
2019-02-21T05:04:55.033Z,50.00
2019-02-21T05:07:22.327Z,50.70
2019-02-21T05:09:57.599Z,50.10
2019-02-21T05:14:46.341Z,50.10
2019-02-21T05:17:13.824Z,49.90
2019-02-21T05:19:41.110Z,49.90
2019-02-21T05:24:38.408Z,50.00
2019-02-21T05:29:38.678Z,50.00
2019-02-21T05:32:43.812Z,50.00
2019-02-21T05:35:31.430Z,50.00
2019-02-21T05:38:30.679Z,50.70
2019-02-21T05:41:17.510Z,50.10
2019-02-21T05:44:05.526Z,50.10
2019-02-21T05:46:51.235Z,50.00
2019-02-21T05:49:27.184Z,50.10
2019-02-21T05:52:23.123Z,50.00
2019-02-21T05:55:16.068Z,50.00
2019-02-21T05:57:55.197Z,49.90
2019-02-21T06:03:37.654Z,50.00
2019-02-21T06:06:27.775Z,50.10
2019-02-21T06:09:05.071Z,50.10
2019-02-21T06:11:43.278Z,50.10
2019-02-21T06:14:32.795Z,50.30
2019-02-21T06:17:22.506Z,50.20
2019-02-21T06:19:54.776Z,50.20
2019-02-21T06:22:37.856Z,50.30
2019-02-21T06:25:14.377Z,50.30
2019-02-21T06:27:47.614Z,50.30
2019-02-21T06:30:29.238Z,50.30
2019-02-21T06:33:04.445Z,50.40
2019-02-21T06:35:26.740Z,50.50
2019-02-21T06:37:54.081Z,50.60
2019-02-21T06:40:21.505Z,50.60
2019-02-21T06:42:48.798Z,51.10
2019-02-21T06:45:18.139Z,50.60
2019-02-21T06:47:45.363Z,50.50
2019-02-21T06:50:14.358Z,51.40
2019-02-21T06:52:42.008Z,50.50
2019-02-21T06:55:09.351Z,50.60
2019-02-21T06:57:36.769Z,51.10
2019-02-21T07:00:04.220Z,50.60
2019-02-21T07:02:31.523Z,50.60
2019-02-21T07:04:58.912Z,51.20
2019-02-21T07:07:26.363Z,50.70
2019-02-21T07:12:20.969Z,50.50
2019-02-21T07:14:48.402Z,51.10
2019-02-21T07:17:15.684Z,50.50
2019-02-21T07:19:43.147Z,50.40
2019-02-21T07:22:17.842Z,50.40
2019-02-21T07:24:43.858Z,50.30
2019-02-21T07:27:11.279Z,50.20
2019-02-21T07:29:38.892Z,50.20
2019-02-21T07:32:06.684Z,50.10
2019-02-21T07:34:34.089Z,50.70
2019-02-21T07:37:01.411Z,49.90
2019-02-21T07:39:35.507Z,49.90
2019-02-21T07:41:57.920Z,50.30
2019-02-21T07:44:25.270Z,50.30
2019-02-21T07:46:53.514Z,49.70
2019-02-21T07:51:48.829Z,49.70
2019-02-21T07:54:16.312Z,50.70
2019-02-21T07:56:43.694Z,51.30
2019-02-21T07:59:12.149Z,49.90
2019-02-21T08:01:39.700Z,49.70
2019-02-21T08:04:07.183Z,50.20
2019-02-21T08:06:34.682Z,50.10
2019-02-21T08:09:02.045Z,49.90
2019-02-21T08:11:29.459Z,49.80
2019-02-21T08:13:56.957Z,49.70
2019-02-21T08:16:24.483Z,49.60
2019-02-21T08:18:51.846Z,49.50
2019-02-21T08:21:19.338Z,51.00
2019-02-21T08:24:44.191Z,49.00
2019-02-21T08:27:11.623Z,49.50
2019-02-21T08:29:39.116Z,49.40
2019-02-21T08:32:06.688Z,49.60
2019-02-21T08:34:40.652Z,49.60
2019-02-21T08:37:08.841Z,49.70
2019-02-21T08:39:36.292Z,49.80
2019-02-21T08:42:03.721Z,49.90
2019-02-21T08:44:31.139Z,49.90
2019-02-21T08:46:58.364Z,49.80
2019-02-21T08:51:30.842Z,49.10
2019-02-21T08:53:58.264Z,49.50
2019-02-21T08:56:25.615Z,49.30
2019-02-21T08:58:53.064Z,49.20
2019-02-21T09:01:20.372Z,47.90
2019-02-21T09:03:47.760Z,48.70
2019-02-21T09:06:15.593Z,48.40
2019-02-21T09:08:42.958Z,48.00
2019-02-21T09:11:10.337Z,47.80
2019-02-21T09:13:37.801Z,47.40
2019-02-21T09:16:05.129Z,47.00
2019-02-21T09:18:32.574Z,46.60
2019-02-21T09:21:00.060Z,46.20
2019-02-21T09:23:27.569Z,45.60
2019-02-21T09:25:55.052Z,43.50
2019-02-21T09:28:22.382Z,44.70
2019-02-21T09:30:49.734Z,44.40
2019-02-21T09:33:20.257Z,43.80
2019-02-21T09:35:46.329Z,43.40
2019-02-21T09:38:13.834Z,43.20
2019-02-21T09:40:42.736Z,42.70
2019-02-21T09:43:10.349Z,42.30
2019-02-21T09:47:50.065Z,42.10
2019-02-21T09:50:17.592Z,40.80
2019-02-21T09:52:45.059Z,41.60
2019-02-21T09:55:14.356Z,41.30
2019-02-21T09:57:41.827Z,41.00
2019-02-21T10:00:16.941Z,40.70
2019-02-21T10:02:44.563Z,40.50
2019-02-21T10:05:12.324Z,40.20
2019-02-21T10:07:39.837Z,39.90
2019-02-21T10:10:10.455Z,39.50
2019-02-21T10:12:37.757Z,39.10
2019-02-21T10:15:06.013Z,38.70
2019-02-21T10:17:33.472Z,38.80
2019-02-21T10:20:00.827Z,38.80
2019-02-21T10:22:28.187Z,38.80
2019-02-21T10:24:57.049Z,38.80
2019-02-21T10:27:24.569Z,38.70
2019-02-21T10:29:51.977Z,38.70
2019-02-21T10:32:19.544Z,38.90
2019-02-21T10:34:46.937Z,39.00
2019-02-21T10:37:14.293Z,39.00
2019-02-21T10:39:41.872Z,39.00
2019-02-21T10:42:09.305Z,38.90
2019-02-21T10:44:36.729Z,38.50
2019-02-21T10:47:04.216Z,38.20
2019-02-21T10:49:31.609Z,38.00
2019-02-21T10:51:58.973Z,37.70
2019-02-21T10:54:26.351Z,37.30
2019-02-21T10:56:54.171Z,37.10
2019-02-21T10:59:21.609Z,37.00
2019-02-21T11:01:48.863Z,36.80
2019-02-21T11:04:16.205Z,36.90
2019-02-21T11:06:43.603Z,36.90
2019-02-21T11:09:21.590Z,37.00
2019-02-21T11:11:49.373Z,37.30
2019-02-21T11:14:16.764Z,37.50
2019-02-21T11:16:44.445Z,37.70
2019-02-21T11:19:12.214Z,37.90
2019-02-21T11:21:39.518Z,38.00
2019-02-21T11:24:06.924Z,38.00
2019-02-21T11:26:34.495Z,38.10
2019-02-21T11:29:22.223Z,38.90
2019-02-21T11:32:00.891Z,38.00
2019-02-21T11:34:33.606Z,38.20
2019-02-21T11:37:03.155Z,38.20
2019-02-21T11:39:51.399Z,38.40
2019-02-21T11:42:18.844Z,38.50
2019-02-21T11:44:49.558Z,38.60
2019-02-21T11:47:54.188Z,38.10
2019-02-21T11:50:23.625Z,39.00
2019-02-21T11:52:51.049Z,39.10
2019-02-21T11:55:19.911Z,39.20
2019-02-21T11:57:48.275Z,39.40
2019-02-21T12:00:20.590Z,39.50
2019-02-21T12:02:47.885Z,39.90
2019-02-21T12:05:31.296Z,40.30
2019-02-21T12:08:03.735Z,41.30
2019-02-21T12:10:31.133Z,40.60
2019-02-21T12:12:58.590Z,40.50
2019-02-21T12:17:54.394Z,39.10
2019-02-21T12:20:21.806Z,39.30
2019-02-21T12:22:49.259Z,38.60
2019-02-21T12:25:16.689Z,38.10
2019-02-21T12:27:44.129Z,37.70
2019-02-21T12:30:13.884Z,37.60
2019-02-21T12:32:41.518Z,37.50
2019-02-21T12:35:09.542Z,37.40
2019-02-21T12:37:37.154Z,37.40
2019-02-21T12:40:05.773Z,37.40
2019-02-21T12:42:33.190Z,37.40
2019-02-21T12:45:01.712Z,37.30
2019-02-21T12:47:29.193Z,37.30
2019-02-21T12:49:56.584Z,37.40
2019-02-21T12:52:23.898Z,37.60
2019-02-21T12:54:51.951Z,37.60
2019-02-21T12:57:19.514Z,37.70
2019-02-21T12:59:49.455Z,37.60
2019-02-21T13:02:18.108Z,37.70
2019-02-21T13:04:48.283Z,37.60
2019-02-21T13:07:16.146Z,37.50
2019-02-21T13:09:43.495Z,37.50
2019-02-21T13:12:10.915Z,37.60
2019-02-21T13:14:38.799Z,37.70
2019-02-21T13:17:06.314Z,37.90
2019-02-21T13:19:33.676Z,37.90
2019-02-21T13:22:01.081Z,37.80
2019-02-21T13:24:28.607Z,37.90
2019-02-21T13:26:58.530Z,37.80
2019-02-21T13:29:26.089Z,37.70
2019-02-21T13:31:53.555Z,37.60
2019-02-21T13:34:21.042Z,37.40
2019-02-21T13:36:48.409Z,37.60
2019-02-21T13:39:15.990Z,37.60
2019-02-21T13:41:43.497Z,37.60
2019-02-21T13:44:11.198Z,37.40
2019-02-21T13:46:41.039Z,37.20
2019-02-21T13:49:07.963Z,36.80
2019-02-21T13:51:35.175Z,36.80
2019-02-21T13:54:02.474Z,36.70
2019-02-21T13:56:29.919Z,36.70
2019-02-21T13:58:57.306Z,36.70
2019-02-21T14:01:24.911Z,36.50
2019-02-21T14:03:52.318Z,36.30
2019-02-21T14:06:19.872Z,35.90
2019-02-21T14:08:47.233Z,36.00
2019-02-21T14:11:14.799Z,35.00
2019-02-21T14:13:42.440Z,35.90
2019-02-21T14:16:10.045Z,35.70
2019-02-21T14:18:37.486Z,36.20
2019-02-21T14:21:05.034Z,35.70
2019-02-21T14:23:32.397Z,35.60
2019-02-21T14:25:59.738Z,35.30
2019-02-21T14:28:27.274Z,35.30
2019-02-21T14:30:54.584Z,35.40
2019-02-21T14:33:22.609Z,35.30
2019-02-21T14:35:49.823Z,35.20
2019-02-21T14:38:27.546Z,35.20
2019-02-21T14:40:46.490Z,35.30
2019-02-21T14:43:16.948Z,35.30
2019-02-21T14:45:43.322Z,35.40
2019-02-21T14:48:10.719Z,35.40
2019-02-21T14:50:38.249Z,35.20
2019-02-21T14:53:06.000Z,35.20
2019-02-21T14:55:33.414Z,35.30
2019-02-21T14:58:00.725Z,35.30
2019-02-21T15:00:28.102Z,35.40
2019-02-21T15:02:57.739Z,35.50
2019-02-21T15:05:25.850Z,35.40
2019-02-21T15:07:53.192Z,35.40
2019-02-21T15:10:22.232Z,35.30
2019-02-21T15:12:49.656Z,35.30
2019-02-21T15:15:37.253Z,35.40
2019-02-21T15:18:08.253Z,35.50
2019-02-21T15:20:37.054Z,35.40
2019-02-21T15:24:08.340Z,35.20
2019-02-21T15:26:35.776Z,35.50
2019-02-21T15:29:03.220Z,35.60
2019-02-21T15:31:30.677Z,35.60
2019-02-21T15:33:58.132Z,35.10
2019-02-21T15:36:25.792Z,34.30
2019-02-21T15:38:53.288Z,35.70
2019-02-21T15:41:20.760Z,35.60
2019-02-21T15:43:48.162Z,35.20
2019-02-21T15:46:35.688Z,35.60
2019-02-21T15:49:03.220Z,35.30
2019-02-21T15:51:57.451Z,35.40
2019-02-21T15:54:24.866Z,35.90
2019-02-21T15:56:52.337Z,35.50
2019-02-21T15:59:21.721Z,36.00
2019-02-21T16:01:49.186Z,35.80
2019-02-21T16:04:16.654Z,35.90
2019-02-21T16:06:51.040Z,36.00
2019-02-21T16:09:16.552Z,36.40
2019-02-21T16:11:43.183Z,36.10
2019-02-21T16:14:10.705Z,36.20
2019-02-21T16:16:38.438Z,36.10
2019-02-21T16:19:05.964Z,36.60
2019-02-21T16:21:33.632Z,36.30
2019-02-21T16:24:00.917Z,36.30
2019-02-21T16:26:28.533Z,36.20
2019-02-21T16:28:55.967Z,36.30
2019-02-21T16:31:23.615Z,36.20
2019-02-21T16:33:50.944Z,36.30
2019-02-21T16:36:18.317Z,36.30
2019-02-21T16:38:45.685Z,36.80
2019-02-21T16:41:13.337Z,36.30
2019-02-21T16:43:40.772Z,36.40
2019-02-21T16:46:10.790Z,36.80
2019-02-21T16:48:38.276Z,36.40
2019-02-21T16:51:05.687Z,36.40
2019-02-21T16:53:33.128Z,36.40
2019-02-21T16:56:00.465Z,36.40
2019-02-21T16:58:27.939Z,36.60
2019-02-21T17:00:56.870Z,36.90
2019-02-21T17:03:24.662Z,36.50
2019-02-21T17:05:52.081Z,36.50
2019-02-21T17:08:19.906Z,37.00
2019-02-21T17:10:50.556Z,36.60
2019-02-21T17:13:17.995Z,36.80
2019-02-21T17:15:45.494Z,36.70
2019-02-21T17:18:13.294Z,36.70
2019-02-21T17:20:40.731Z,36.80
2019-02-21T17:23:08.249Z,36.80
2019-02-21T17:25:35.710Z,36.80
2019-02-21T17:28:03.799Z,36.90
2019-02-21T17:30:31.178Z,36.80
2019-02-21T17:32:58.604Z,37.00
2019-02-21T17:35:26.212Z,38.20
2019-02-21T17:37:53.897Z,38.20
2019-02-21T17:40:21.342Z,37.30
2019-02-21T17:42:48.769Z,37.30
2019-02-21T17:45:16.216Z,37.80
2019-02-21T17:47:43.595Z,37.30
2019-02-21T17:50:11.323Z,37.20
2019-02-21T17:52:38.727Z,37.20
2019-02-21T17:57:33.734Z,37.30
2019-02-21T18:00:03.277Z,37.40
2019-02-21T18:02:31.094Z,36.30
2019-02-21T18:04:58.705Z,37.60
2019-02-21T18:07:36.021Z,37.50
2019-02-21T18:12:22.855Z,37.60
2019-02-21T18:14:50.140Z,37.70
2019-02-21T18:17:17.562Z,37.80
2019-02-21T18:19:44.880Z,37.80
2019-02-21T18:22:12.275Z,37.80
2019-02-21T18:27:07.214Z,37.90
2019-02-21T18:32:01.995Z,37.90
2019-02-21T18:34:29.337Z,38.50
2019-02-21T18:36:56.687Z,38.20
2019-02-21T18:39:24.202Z,38.10
2019-02-21T18:41:51.651Z,38.10
2019-02-21T18:44:18.952Z,38.20
2019-02-21T18:46:46.500Z,38.20
2019-02-21T18:49:14.036Z,38.20
2019-02-21T18:51:41.363Z,38.20
2019-02-21T18:54:08.944Z,38.30
2019-02-21T18:56:36.323Z,38.40
2019-02-21T18:59:03.718Z,38.50
2019-02-21T19:01:31.162Z,38.60
2019-02-21T19:03:59.549Z,38.60
2019-02-21T19:06:27.047Z,38.70
2019-02-21T19:08:54.436Z,38.90
2019-02-21T19:11:21.939Z,38.90
2019-02-21T19:13:50.633Z,39.00
2019-02-21T19:16:18.187Z,39.10
2019-02-21T19:18:45.559Z,39.30
2019-02-21T19:21:13.269Z,39.80
2019-02-21T19:23:40.816Z,39.50
2019-02-21T19:26:08.325Z,39.60
2019-02-21T19:28:37.167Z,40.20
2019-02-21T19:31:10.931Z,39.80
2019-02-21T19:33:38.605Z,39.90
2019-02-21T19:36:05.925Z,40.10
2019-02-21T19:38:52.919Z,40.30
2019-02-21T19:41:20.318Z,40.50
2019-02-21T19:43:47.672Z,40.80
2019-02-21T19:46:15.212Z,40.80
2019-02-21T19:48:42.659Z,41.00
2019-02-21T19:51:10.214Z,41.10
2019-02-21T19:53:37.685Z,41.60
2019-02-21T19:56:05.173Z,41.30
2019-02-21T19:58:35.508Z,41.40
2019-02-21T20:01:03.366Z,41.50
2019-02-21T20:03:36.564Z,41.60
2019-02-21T20:06:04.148Z,42.20
2019-02-21T20:10:55.377Z,41.70
2019-02-21T20:13:22.915Z,42.50
2019-02-21T20:16:04.654Z,42.60
2019-02-21T20:18:32.120Z,43.50
2019-02-21T20:20:59.824Z,42.80
2019-02-21T20:23:27.527Z,43.00
2019-02-21T20:25:55.479Z,43.00
2019-02-21T20:28:22.896Z,43.10
2019-02-21T20:30:50.320Z,43.10
2019-02-21T20:33:17.716Z,41.40
2019-02-21T20:35:45.162Z,43.40
2019-02-21T20:38:13.220Z,43.50
2019-02-21T20:40:40.749Z,43.60
2019-02-21T20:43:08.539Z,43.60
2019-02-21T20:45:38.745Z,43.60
2019-02-21T20:48:06.172Z,43.70
2019-02-21T20:50:33.731Z,43.90
2019-02-21T20:53:02.992Z,44.00
2019-02-21T20:55:30.486Z,44.00
2019-02-21T20:57:58.103Z,44.10
2019-02-21T21:00:27.330Z,44.20
2019-02-21T21:02:55.978Z,45.30
2019-02-21T21:05:23.614Z,44.30
2019-02-21T21:07:51.294Z,44.00
2019-02-21T21:10:26.412Z,43.90
2019-02-21T21:12:55.081Z,43.60
2019-02-21T21:15:25.855Z,43.60
2019-02-21T21:17:57.463Z,43.20
2019-02-21T21:20:26.063Z,43.50
2019-02-21T21:22:59.582Z,43.60
2019-02-21T21:25:27.899Z,43.90
2019-02-21T21:27:59.545Z,43.70
2019-02-21T21:30:28.323Z,43.30
2019-02-21T21:33:02.050Z,43.50
2019-02-21T21:35:37.445Z,43.60
2019-02-21T21:38:06.188Z,43.70
2019-02-21T21:40:41.047Z,42.60
2019-02-21T21:43:08.539Z,43.70
2019-02-21T21:45:56.104Z,44.10
2019-02-21T21:48:26.742Z,43.80
2019-02-21T21:50:55.339Z,43.70
2019-02-21T21:53:24.905Z,44.40
2019-02-21T21:55:52.352Z,43.40
2019-02-21T21:58:19.776Z,44.20
2019-02-21T22:00:47.245Z,44.10
2019-02-21T22:03:14.729Z,44.10
2019-02-21T22:05:42.161Z,44.20
2019-02-21T22:08:10.086Z,44.20
2019-02-21T22:10:39.235Z,44.40
2019-02-21T22:13:06.694Z,44.40
2019-02-21T22:15:34.747Z,44.10
2019-02-21T22:18:05.064Z,44.10
2019-02-21T22:20:32.660Z,44.20
2019-02-21T22:23:02.132Z,42.50
2019-02-21T22:25:29.536Z,44.20
2019-02-21T22:27:57.422Z,43.60
2019-02-21T22:30:25.115Z,42.80
2019-02-21T22:32:53.065Z,43.90
2019-02-21T22:35:20.704Z,43.00
2019-02-21T22:37:48.206Z,44.30
2019-02-21T22:40:15.576Z,44.30
2019-02-21T22:42:43.561Z,44.20
2019-02-21T22:45:11.251Z,44.00
2019-02-21T22:47:38.739Z,46.30
2019-02-21T22:50:08.503Z,44.20
2019-02-21T22:52:37.094Z,44.40
2019-02-21T22:55:09.921Z,44.40
2019-02-21T22:57:33.906Z,46.10
2019-02-21T23:00:04.117Z,44.30
2019-02-21T23:02:33.034Z,44.10
2019-02-21T23:05:30.674Z,44.50
2019-02-21T23:08:13.083Z,44.40
2019-02-21T23:10:45.214Z,44.40
2019-02-21T23:13:12.656Z,45.50
2019-02-21T23:20:07.466Z,43.60
2019-02-21T23:22:34.921Z,44.60
2019-02-21T23:25:02.471Z,42.60
2019-02-21T23:27:29.786Z,44.70
2019-02-21T23:29:57.242Z,44.50
2019-02-21T23:32:24.716Z,44.50
2019-02-21T23:34:53.032Z,44.50
2019-02-21T23:37:20.400Z,44.50
2019-02-21T23:39:47.895Z,44.50
2019-02-21T23:42:18.145Z,44.60
2019-02-21T23:44:45.803Z,45.60
2019-02-21T23:47:13.418Z,44.60
2019-02-21T23:49:40.683Z,44.60
2019-02-21T23:52:08.007Z,44.50
2019-02-21T23:54:35.436Z,44.50
2019-02-21T23:57:02.820Z,44.50
2019-02-21T23:59:30.269Z,44.40
